sensor_id;sensor_type;location;lat;lon;timestamp;temperature;humidity
42365;DHT22;28498;54.400;18.566;2023-07-16T00:00:28;19.70;94.80
42365;DHT22;28498;54.400;18.566;2023-07-16T00:02:55;19.60;99.90
42365;DHT22;28498;54.400;18.566;2023-07-16T00:05:22;19.60;99.90
42365;DHT22;28498;54.400;18.566;2023-07-16T00:07:49;19.60;99.90
42365;DHT22;28498;54.400;18.566;2023-07-16T00:10:17;19.70;99.90
42365;DHT22;28498;54.400;18.566;2023-07-16T00:12:44;19.80;99.90
42365;DHT22;28498;54.400;18.566;2023-07-16T00:15:11;19.70;99.90
42365;DHT22;28498;54.400;18.566;2023-07-16T00:17:38;19.70;87.00
42365;DHT22;28498;54.400;18.566;2023-07-16T00:20:05;19.70;99.90
42365;DHT22;28498;54.400;18.566;2023-07-16T00:22:32;19.70;99.90
42365;DHT22;28498;54.400;18.566;2023-07-16T00:25:00;19.70;99.90
42365;DHT22;28498;54.400;18.566;2023-07-16T00:27:27;19.70;99.90
42365;DHT22;28498;54.400;18.566;2023-07-16T00:29:54;19.60;99.90
42365;DHT22;28498;54.400;18.566;2023-07-16T00:32:21;19.70;99.90
42365;DHT22;28498;54.400;18.566;2023-07-16T00:34:48;19.70;99.90
42365;DHT22;28498;54.400;18.566;2023-07-16T00:37:15;19.70;99.90
42365;DHT22;28498;54.400;18.566;2023-07-16T00:39:42;19.70;99.90
42365;DHT22;28498;54.400;18.566;2023-07-16T00:42:09;19.70;99.90
42365;DHT22;28498;54.400;18.566;2023-07-16T00:44:36;19.70;99.90
42365;DHT22;28498;54.400;18.566;2023-07-16T00:47:03;19.70;99.90
42365;DHT22;28498;54.400;18.566;2023-07-16T00:49:30;19.70;99.90
42365;DHT22;28498;54.400;18.566;2023-07-16T00:51:59;19.80;99.90
42365;DHT22;28498;54.400;18.566;2023-07-16T00:54:28;19.80;99.90
42365;DHT22;28498;54.400;18.566;2023-07-16T00:56:56;19.80;99.90
42365;DHT22;28498;54.400;18.566;2023-07-16T00:59:23;19.80;99.90
42365;DHT22;28498;54.400;18.566;2023-07-16T01:01:50;19.80;99.90
42365;DHT22;28498;54.400;18.566;2023-07-16T01:04:17;19.80;99.90
42365;DHT22;28498;54.400;18.566;2023-07-16T01:06:48;19.70;99.90
42365;DHT22;28498;54.400;18.566;2023-07-16T01:09:18;19.70;99.90
42365;DHT22;28498;54.400;18.566;2023-07-16T01:11:47;19.70;99.90
42365;DHT22;28498;54.400;18.566;2023-07-16T01:14:16;19.70;99.90
42365;DHT22;28498;54.400;18.566;2023-07-16T01:16:44;19.70;99.90
42365;DHT22;28498;54.400;18.566;2023-07-16T01:19:11;19.60;99.90
42365;DHT22;28498;54.400;18.566;2023-07-16T01:27:30;19.60;99.90
42365;DHT22;28498;54.400;18.566;2023-07-16T01:29:54;19.50;99.90
42365;DHT22;28498;54.400;18.566;2023-07-16T01:32:23;19.50;99.90
42365;DHT22;28498;54.400;18.566;2023-07-16T01:34:52;19.40;99.90
42365;DHT22;28498;54.400;18.566;2023-07-16T01:37:20;19.30;99.90
42365;DHT22;28498;54.400;18.566;2023-07-16T01:39:47;19.30;99.90
42365;DHT22;28498;54.400;18.566;2023-07-16T01:42:14;19.30;99.90
42365;DHT22;28498;54.400;18.566;2023-07-16T01:44:41;19.20;99.90
42365;DHT22;28498;54.400;18.566;2023-07-16T01:49:35;19.00;99.90
42365;DHT22;28498;54.400;18.566;2023-07-16T01:52:03;18.90;1.00
42365;DHT22;28498;54.400;18.566;2023-07-16T01:54:30;18.90;1.00
42365;DHT22;28498;54.400;18.566;2023-07-16T01:56:58;18.90;1.00
42365;DHT22;28498;54.400;18.566;2023-07-16T01:59:25;18.80;1.00
42365;DHT22;28498;54.400;18.566;2023-07-16T02:01:52;18.80;1.00
42365;DHT22;28498;54.400;18.566;2023-07-16T02:04:20;18.80;1.00
42365;DHT22;28498;54.400;18.566;2023-07-16T02:06:47;18.70;1.00
42365;DHT22;28498;54.400;18.566;2023-07-16T02:09:17;18.60;1.00
42365;DHT22;28498;54.400;18.566;2023-07-16T02:11:44;18.70;1.00
42365;DHT22;28498;54.400;18.566;2023-07-16T02:14:11;18.70;1.00
42365;DHT22;28498;54.400;18.566;2023-07-16T02:16:39;18.80;1.00
42365;DHT22;28498;54.400;18.566;2023-07-16T02:19:06;18.80;1.00
42365;DHT22;28498;54.400;18.566;2023-07-16T02:21:33;18.80;1.00
42365;DHT22;28498;54.400;18.566;2023-07-16T02:24:00;18.90;1.00
42365;DHT22;28498;54.400;18.566;2023-07-16T02:26:27;18.90;1.00
42365;DHT22;28498;54.400;18.566;2023-07-16T02:28:54;18.90;1.00
42365;DHT22;28498;54.400;18.566;2023-07-16T02:31:21;19.00;1.00
42365;DHT22;28498;54.400;18.566;2023-07-16T02:33:48;19.10;1.00
42365;DHT22;28498;54.400;18.566;2023-07-16T02:36:15;19.10;1.00
42365;DHT22;28498;54.400;18.566;2023-07-16T02:38:43;19.20;1.00
42365;DHT22;28498;54.400;18.566;2023-07-16T02:41:10;19.30;1.00
42365;DHT22;28498;54.400;18.566;2023-07-16T02:43:37;19.30;99.90
42365;DHT22;28498;54.400;18.566;2023-07-16T02:46:04;19.50;99.90
42365;DHT22;28498;54.400;18.566;2023-07-16T02:48:31;19.60;99.90
42365;DHT22;28498;54.400;18.566;2023-07-16T02:50:58;19.70;99.90
42365;DHT22;28498;54.400;18.566;2023-07-16T02:53:25;20.00;99.90
42365;DHT22;28498;54.400;18.566;2023-07-16T02:55:52;20.00;99.90
42365;DHT22;28498;54.400;18.566;2023-07-16T02:58:19;20.10;52.90
42365;DHT22;28498;54.400;18.566;2023-07-16T03:00:46;20.20;1.00
42365;DHT22;28498;54.400;18.566;2023-07-16T03:03:13;20.40;99.90
42365;DHT22;28498;54.400;18.566;2023-07-16T03:05:41;20.50;99.90
42365;DHT22;28498;54.400;18.566;2023-07-16T03:08:08;20.60;99.90
42365;DHT22;28498;54.400;18.566;2023-07-16T03:10:35;20.70;1.00
42365;DHT22;28498;54.400;18.566;2023-07-16T03:13:02;20.80;99.90
42365;DHT22;28498;54.400;18.566;2023-07-16T03:15:29;20.90;99.90
42365;DHT22;28498;54.400;18.566;2023-07-16T03:17:56;20.90;99.90
42365;DHT22;28498;54.400;18.566;2023-07-16T03:20:23;21.00;50.80
42365;DHT22;28498;54.400;18.566;2023-07-16T03:22:50;21.00;55.60
42365;DHT22;28498;54.400;18.566;2023-07-16T03:25:17;21.10;99.90
42365;DHT22;28498;54.400;18.566;2023-07-16T03:27:44;21.20;99.90
42365;DHT22;28498;54.400;18.566;2023-07-16T03:30:11;21.20;99.90
42365;DHT22;28498;54.400;18.566;2023-07-16T03:32:38;21.20;99.90
42365;DHT22;28498;54.400;18.566;2023-07-16T03:35:19;21.30;99.90
42365;DHT22;28498;54.400;18.566;2023-07-16T03:37:47;21.30;99.90
42365;DHT22;28498;54.400;18.566;2023-07-16T03:40:17;21.30;99.90
42365;DHT22;28498;54.400;18.566;2023-07-16T03:42:44;21.50;99.90
42365;DHT22;28498;54.400;18.566;2023-07-16T03:45:11;21.60;99.90
42365;DHT22;28498;54.400;18.566;2023-07-16T03:47:38;21.50;99.90
42365;DHT22;28498;54.400;18.566;2023-07-16T03:50:06;21.50;99.90
42365;DHT22;28498;54.400;18.566;2023-07-16T03:52:33;21.30;99.90
42365;DHT22;28498;54.400;18.566;2023-07-16T03:55:00;21.20;99.90
42365;DHT22;28498;54.400;18.566;2023-07-16T03:57:30;21.20;99.90
42365;DHT22;28498;54.400;18.566;2023-07-16T03:59:58;21.10;99.90
42365;DHT22;28498;54.400;18.566;2023-07-16T04:02:25;21.10;1.00
42365;DHT22;28498;54.400;18.566;2023-07-16T04:04:52;21.20;1.00
42365;DHT22;28498;54.400;18.566;2023-07-16T04:07:19;21.40;99.90
42365;DHT22;28498;54.400;18.566;2023-07-16T04:09:46;21.90;99.90
42365;DHT22;28498;54.400;18.566;2023-07-16T04:12:13;22.30;1.00
42365;DHT22;28498;54.400;18.566;2023-07-16T04:14:40;22.60;20.40
42365;DHT22;28498;54.400;18.566;2023-07-16T04:17:07;23.20;99.90
42365;DHT22;28498;54.400;18.566;2023-07-16T04:19:35;23.80;99.90
42365;DHT22;28498;54.400;18.566;2023-07-16T04:22:02;24.50;99.90
42365;DHT22;28498;54.400;18.566;2023-07-16T04:24:29;24.70;99.90
42365;DHT22;28498;54.400;18.566;2023-07-16T04:26:57;24.60;99.90
42365;DHT22;28498;54.400;18.566;2023-07-16T04:29:24;24.70;99.90
42365;DHT22;28498;54.400;18.566;2023-07-16T04:31:51;24.90;99.90
42365;DHT22;28498;54.400;18.566;2023-07-16T04:34:18;25.10;99.90
42365;DHT22;28498;54.400;18.566;2023-07-16T04:36:45;25.10;99.90
42365;DHT22;28498;54.400;18.566;2023-07-16T04:39:12;24.90;99.90
42365;DHT22;28498;54.400;18.566;2023-07-16T04:41:39;24.70;99.90
42365;DHT22;28498;54.400;18.566;2023-07-16T04:44:06;25.00;99.90
42365;DHT22;28498;54.400;18.566;2023-07-16T04:46:33;24.80;99.90
42365;DHT22;28498;54.400;18.566;2023-07-16T04:49:01;24.50;99.90
42365;DHT22;28498;54.400;18.566;2023-07-16T04:51:28;24.10;99.90
42365;DHT22;28498;54.400;18.566;2023-07-16T04:53:55;24.10;1.00
42365;DHT22;28498;54.400;18.566;2023-07-16T04:56:22;24.00;99.90
42365;DHT22;28498;54.400;18.566;2023-07-16T04:58:49;24.00;99.90
42365;DHT22;28498;54.400;18.566;2023-07-16T05:01:16;23.90;99.90
42365;DHT22;28498;54.400;18.566;2023-07-16T05:03:43;23.90;99.90
42365;DHT22;28498;54.400;18.566;2023-07-16T05:06:10;23.80;99.90
42365;DHT22;28498;54.400;18.566;2023-07-16T05:08:37;23.80;31.80
42365;DHT22;28498;54.400;18.566;2023-07-16T05:11:04;23.90;1.00
42365;DHT22;28498;54.400;18.566;2023-07-16T05:13:31;23.90;99.90
42365;DHT22;28498;54.400;18.566;2023-07-16T05:15:58;23.70;99.90
42365;DHT22;28498;54.400;18.566;2023-07-16T05:18:25;23.70;1.00
42365;DHT22;28498;54.400;18.566;2023-07-16T05:20:52;23.60;1.00
42365;DHT22;28498;54.400;18.566;2023-07-16T05:23:19;23.60;99.90
42365;DHT22;28498;54.400;18.566;2023-07-16T05:25:50;23.60;99.90
42365;DHT22;28498;54.400;18.566;2023-07-16T05:28:18;23.60;1.00
42365;DHT22;28498;54.400;18.566;2023-07-16T05:30:45;23.50;99.90
42365;DHT22;28498;54.400;18.566;2023-07-16T05:33:12;23.30;1.00
42365;DHT22;28498;54.400;18.566;2023-07-16T05:35:40;23.30;99.90
42365;DHT22;28498;54.400;18.566;2023-07-16T05:38:07;23.20;99.90
42365;DHT22;28498;54.400;18.566;2023-07-16T05:40:34;23.20;1.00
42365;DHT22;28498;54.400;18.566;2023-07-16T05:43:01;23.20;37.70
42365;DHT22;28498;54.400;18.566;2023-07-16T05:45:29;23.10;99.90
42365;DHT22;28498;54.400;18.566;2023-07-16T05:47:56;23.20;1.00
42365;DHT22;28498;54.400;18.566;2023-07-16T05:50:23;23.20;1.00
42365;DHT22;28498;54.400;18.566;2023-07-16T05:52:50;23.30;99.90
42365;DHT22;28498;54.400;18.566;2023-07-16T05:55:17;23.30;1.00
42365;DHT22;28498;54.400;18.566;2023-07-16T05:57:44;23.30;99.90
42365;DHT22;28498;54.400;18.566;2023-07-16T06:00:11;23.40;86.00
42365;DHT22;28498;54.400;18.566;2023-07-16T06:02:38;23.30;99.90
42365;DHT22;28498;54.400;18.566;2023-07-16T06:05:06;23.40;99.90
42365;DHT22;28498;54.400;18.566;2023-07-16T06:07:33;23.40;39.80
42365;DHT22;28498;54.400;18.566;2023-07-16T06:10:00;23.50;1.00
42365;DHT22;28498;54.400;18.566;2023-07-16T06:12:27;23.80;1.00
42365;DHT22;28498;54.400;18.566;2023-07-16T06:14:54;24.10;99.90
42365;DHT22;28498;54.400;18.566;2023-07-16T06:17:21;24.70;99.90
42365;DHT22;28498;54.400;18.566;2023-07-16T06:19:49;24.90;99.90
42365;DHT22;28498;54.400;18.566;2023-07-16T06:22:18;25.30;1.00
42365;DHT22;28498;54.400;18.566;2023-07-16T06:24:45;25.60;99.90
42365;DHT22;28498;54.400;18.566;2023-07-16T06:27:12;25.80;99.90
42365;DHT22;28498;54.400;18.566;2023-07-16T06:29:39;25.70;99.90
42365;DHT22;28498;54.400;18.566;2023-07-16T06:32:06;25.90;99.90
42365;DHT22;28498;54.400;18.566;2023-07-16T06:34:33;26.10;99.90
42365;DHT22;28498;54.400;18.566;2023-07-16T06:37:01;26.30;99.90
42365;DHT22;28498;54.400;18.566;2023-07-16T06:39:28;26.70;99.90
42365;DHT22;28498;54.400;18.566;2023-07-16T06:41:55;26.80;1.00
42365;DHT22;28498;54.400;18.566;2023-07-16T06:44:22;27.00;97.90
42365;DHT22;28498;54.400;18.566;2023-07-16T06:46:50;26.90;97.00
42365;DHT22;28498;54.400;18.566;2023-07-16T06:49:17;27.00;97.10
42365;DHT22;28498;54.400;18.566;2023-07-16T06:51:44;27.10;94.10
42365;DHT22;28498;54.400;18.566;2023-07-16T06:54:11;27.40;94.40
42365;DHT22;28498;54.400;18.566;2023-07-16T06:56:38;27.50;92.20
42365;DHT22;28498;54.400;18.566;2023-07-16T06:59:05;27.30;92.20
42365;DHT22;28498;54.400;18.566;2023-07-16T07:01:32;27.30;91.50
42365;DHT22;28498;54.400;18.566;2023-07-16T07:03:59;27.50;92.80
42365;DHT22;28498;54.400;18.566;2023-07-16T07:06:27;27.80;92.20
42365;DHT22;28498;54.400;18.566;2023-07-16T07:08:54;28.10;92.40
42365;DHT22;28498;54.400;18.566;2023-07-16T07:11:21;28.00;88.60
42365;DHT22;28498;54.400;18.566;2023-07-16T07:13:48;28.10;89.70
42365;DHT22;28498;54.400;18.566;2023-07-16T07:16:17;28.30;87.40
42365;DHT22;28498;54.400;18.566;2023-07-16T07:18:45;28.40;87.40
42365;DHT22;28498;54.400;18.566;2023-07-16T07:21:12;28.30;86.00
42365;DHT22;28498;54.400;18.566;2023-07-16T07:23:39;28.60;86.40
42365;DHT22;28498;54.400;18.566;2023-07-16T07:26:06;28.50;82.60
42365;DHT22;28498;54.400;18.566;2023-07-16T07:28:33;28.30;83.70
42365;DHT22;28498;54.400;18.566;2023-07-16T07:31:01;28.00;83.40
42365;DHT22;28498;54.400;18.566;2023-07-16T07:33:28;27.80;84.60
42365;DHT22;28498;54.400;18.566;2023-07-16T07:35:56;28.10;83.40
42365;DHT22;28498;54.400;18.566;2023-07-16T07:38:23;27.80;82.80
42365;DHT22;28498;54.400;18.566;2023-07-16T07:40:50;27.90;83.50
42365;DHT22;28498;54.400;18.566;2023-07-16T07:43:17;28.00;83.40
42365;DHT22;28498;54.400;18.566;2023-07-16T07:45:44;28.30;84.90
42365;DHT22;28498;54.400;18.566;2023-07-16T07:48:11;28.50;84.20
42365;DHT22;28498;54.400;18.566;2023-07-16T07:50:38;28.70;83.40
42365;DHT22;28498;54.400;18.566;2023-07-16T07:53:05;28.60;81.20
42365;DHT22;28498;54.400;18.566;2023-07-16T07:55:34;28.90;81.30
42365;DHT22;28498;54.400;18.566;2023-07-16T07:58:02;28.70;80.50
42365;DHT22;28498;54.400;18.566;2023-07-16T08:00:29;28.80;80.00
42365;DHT22;28498;54.400;18.566;2023-07-16T08:02:56;28.50;80.10
42365;DHT22;28498;54.400;18.566;2023-07-16T08:05:23;28.50;80.50
42365;DHT22;28498;54.400;18.566;2023-07-16T08:07:50;28.40;80.50
42365;DHT22;28498;54.400;18.566;2023-07-16T08:10:19;28.40;81.80
42365;DHT22;28498;54.400;18.566;2023-07-16T08:12:46;28.30;81.00
42365;DHT22;28498;54.400;18.566;2023-07-16T08:15:13;28.10;81.70
42365;DHT22;28498;54.400;18.566;2023-07-16T08:17:44;28.30;81.70
42365;DHT22;28498;54.400;18.566;2023-07-16T08:20:12;28.10;82.30
42365;DHT22;28498;54.400;18.566;2023-07-16T08:22:39;28.30;82.80
42365;DHT22;28498;54.400;18.566;2023-07-16T08:25:07;28.60;83.40
42365;DHT22;28498;54.400;18.566;2023-07-16T08:27:34;28.90;83.50
42365;DHT22;28498;54.400;18.566;2023-07-16T08:30:01;29.20;85.40
42365;DHT22;28498;54.400;18.566;2023-07-16T08:36:17;28.70;83.20
42365;DHT22;28498;54.400;18.566;2023-07-16T08:38:44;28.80;85.80
42365;DHT22;28498;54.400;18.566;2023-07-16T08:41:11;29.00;86.60
42365;DHT22;28498;54.400;18.566;2023-07-16T08:43:38;29.10;85.20
42365;DHT22;28498;54.400;18.566;2023-07-16T08:49:55;28.50;86.60
42365;DHT22;28498;54.400;18.566;2023-07-16T08:52:25;29.10;89.40
42365;DHT22;28498;54.400;18.566;2023-07-16T08:54:53;28.80;87.50
42365;DHT22;28498;54.400;18.566;2023-07-16T08:57:21;28.50;88.00
42365;DHT22;28498;54.400;18.566;2023-07-16T08:59:49;28.70;90.10
42365;DHT22;28498;54.400;18.566;2023-07-16T09:02:18;29.00;90.00
42365;DHT22;28498;54.400;18.566;2023-07-16T09:04:49;29.20;89.30
42365;DHT22;28498;54.400;18.566;2023-07-16T09:07:17;29.30;89.20
42365;DHT22;28498;54.400;18.566;2023-07-16T09:09:58;29.00;88.80
42365;DHT22;28498;54.400;18.566;2023-07-16T09:12:26;28.80;91.10
42365;DHT22;28498;54.400;18.566;2023-07-16T09:18:40;28.80;92.10
42365;DHT22;28498;54.400;18.566;2023-07-16T09:21:08;28.50;93.10
42365;DHT22;28498;54.400;18.566;2023-07-16T09:23:35;28.40;95.20
42365;DHT22;28498;54.400;18.566;2023-07-16T09:26:03;28.50;95.20
42365;DHT22;28498;54.400;18.566;2023-07-16T09:28:32;28.20;96.80
42365;DHT22;28498;54.400;18.566;2023-07-16T09:31:06;28.00;96.50
42365;DHT22;28498;54.400;18.566;2023-07-16T09:33:34;27.80;96.90
42365;DHT22;28498;54.400;18.566;2023-07-16T09:36:03;27.50;98.70
42365;DHT22;28498;54.400;18.566;2023-07-16T09:38:30;27.40;99.90
42365;DHT22;28498;54.400;18.566;2023-07-16T09:40:59;27.00;99.90
42365;DHT22;28498;54.400;18.566;2023-07-16T09:43:26;26.80;99.90
42365;DHT22;28498;54.400;18.566;2023-07-16T09:45:53;26.50;99.90
42365;DHT22;28498;54.400;18.566;2023-07-16T09:48:20;26.50;99.90
42365;DHT22;28498;54.400;18.566;2023-07-16T09:50:52;26.70;99.90
42365;DHT22;28498;54.400;18.566;2023-07-16T09:53:20;26.70;99.90
42365;DHT22;28498;54.400;18.566;2023-07-16T09:55:54;26.40;68.70
42365;DHT22;28498;54.400;18.566;2023-07-16T09:58:23;26.50;10.00
42365;DHT22;28498;54.400;18.566;2023-07-16T10:00:51;26.70;99.90
42365;DHT22;28498;54.400;18.566;2023-07-16T10:03:18;26.90;1.00
42365;DHT22;28498;54.400;18.566;2023-07-16T10:05:47;26.80;1.00
42365;DHT22;28498;54.400;18.566;2023-07-16T10:08:19;26.40;99.90
42365;DHT22;28498;54.400;18.566;2023-07-16T10:10:53;26.20;1.00
42365;DHT22;28498;54.400;18.566;2023-07-16T10:13:23;26.30;99.90
42365;DHT22;28498;54.400;18.566;2023-07-16T10:15:58;26.50;99.90
42365;DHT22;28498;54.400;18.566;2023-07-16T10:18:29;26.40;99.90
42365;DHT22;28498;54.400;18.566;2023-07-16T10:21:04;26.60;99.90
42365;DHT22;28498;54.400;18.566;2023-07-16T10:23:42;26.50;98.70
42365;DHT22;28498;54.400;18.566;2023-07-16T10:26:14;26.60;99.90
42365;DHT22;28498;54.400;18.566;2023-07-16T10:28:46;26.60;99.90
42365;DHT22;28498;54.400;18.566;2023-07-16T10:31:19;26.40;99.90
42365;DHT22;28498;54.400;18.566;2023-07-16T10:34:02;26.50;78.40
42365;DHT22;28498;54.400;18.566;2023-07-16T10:36:39;26.70;95.90
42365;DHT22;28498;54.400;18.566;2023-07-16T10:39:07;26.20;91.80
42365;DHT22;28498;54.400;18.566;2023-07-16T10:41:34;26.00;1.50
42365;DHT22;28498;54.400;18.566;2023-07-16T10:44:01;26.10;99.90
42365;DHT22;28498;54.400;18.566;2023-07-16T10:46:31;26.00;1.00
42365;DHT22;28498;54.400;18.566;2023-07-16T10:49:00;25.80;99.90
42365;DHT22;28498;54.400;18.566;2023-07-16T10:51:27;25.90;99.90
42365;DHT22;28498;54.400;18.566;2023-07-16T10:53:58;26.10;99.90
42365;DHT22;28498;54.400;18.566;2023-07-16T10:56:25;26.30;99.90
42365;DHT22;28498;54.400;18.566;2023-07-16T10:58:52;26.40;99.90
42365;DHT22;28498;54.400;18.566;2023-07-16T11:01:20;26.40;1.00
42365;DHT22;28498;54.400;18.566;2023-07-16T11:03:47;26.40;99.90
42365;DHT22;28498;54.400;18.566;2023-07-16T11:06:14;26.50;61.40
42365;DHT22;28498;54.400;18.566;2023-07-16T11:08:44;26.30;99.90
42365;DHT22;28498;54.400;18.566;2023-07-16T11:11:11;26.30;99.90
42365;DHT22;28498;54.400;18.566;2023-07-16T11:13:38;26.30;99.90
42365;DHT22;28498;54.400;18.566;2023-07-16T11:16:11;26.60;99.90
42365;DHT22;28498;54.400;18.566;2023-07-16T11:18:38;26.80;99.90
42365;DHT22;28498;54.400;18.566;2023-07-16T11:21:05;27.20;99.90
42365;DHT22;28498;54.400;18.566;2023-07-16T11:23:36;27.20;99.90
42365;DHT22;28498;54.400;18.566;2023-07-16T11:26:03;26.80;99.90
42365;DHT22;28498;54.400;18.566;2023-07-16T11:28:41;26.70;93.20
42365;DHT22;28498;54.400;18.566;2023-07-16T11:31:16;26.40;99.90
42365;DHT22;28498;54.400;18.566;2023-07-16T11:33:44;26.30;99.90
42365;DHT22;28498;54.400;18.566;2023-07-16T11:36:12;26.30;99.90
42365;DHT22;28498;54.400;18.566;2023-07-16T11:42:33;26.30;99.90
42365;DHT22;28498;54.400;18.566;2023-07-16T11:45:02;26.70;99.90
42365;DHT22;28498;54.400;18.566;2023-07-16T11:47:30;27.20;24.10
42365;DHT22;28498;54.400;18.566;2023-07-16T11:49:57;27.60;99.90
42365;DHT22;28498;54.400;18.566;2023-07-16T11:52:26;27.80;99.90
42365;DHT22;28498;54.400;18.566;2023-07-16T11:54:55;27.60;99.90
42365;DHT22;28498;54.400;18.566;2023-07-16T11:57:23;27.80;99.90
42365;DHT22;28498;54.400;18.566;2023-07-16T11:59:50;28.20;99.90
42365;DHT22;28498;54.400;18.566;2023-07-16T12:02:17;28.40;99.90
42365;DHT22;28498;54.400;18.566;2023-07-16T12:04:45;28.50;99.90
42365;DHT22;28498;54.400;18.566;2023-07-16T12:07:12;28.50;99.90
42365;DHT22;28498;54.400;18.566;2023-07-16T12:09:39;28.90;99.90
42365;DHT22;28498;54.400;18.566;2023-07-16T12:12:06;28.70;99.90
42365;DHT22;28498;54.400;18.566;2023-07-16T12:14:33;29.10;99.60
42365;DHT22;28498;54.400;18.566;2023-07-16T12:20:53;28.50;98.90
42365;DHT22;28498;54.400;18.566;2023-07-16T12:23:20;28.60;99.90
42365;DHT22;28498;54.400;18.566;2023-07-16T12:25:49;28.40;99.90
42365;DHT22;28498;54.400;18.566;2023-07-16T12:28:16;28.20;99.90
42365;DHT22;28498;54.400;18.566;2023-07-16T12:30:43;27.60;99.90
42365;DHT22;28498;54.400;18.566;2023-07-16T12:33:10;27.40;99.90
42365;DHT22;28498;54.400;18.566;2023-07-16T12:35:37;27.20;99.90
42365;DHT22;28498;54.400;18.566;2023-07-16T12:38:04;27.20;99.90
42365;DHT22;28498;54.400;18.566;2023-07-16T12:40:31;27.10;99.90
42365;DHT22;28498;54.400;18.566;2023-07-16T12:42:59;27.10;99.90
42365;DHT22;28498;54.400;18.566;2023-07-16T12:45:26;27.30;99.90
42365;DHT22;28498;54.400;18.566;2023-07-16T12:47:53;27.80;99.90
42365;DHT22;28498;54.400;18.566;2023-07-16T12:50:20;27.70;99.90
42365;DHT22;28498;54.400;18.566;2023-07-16T12:52:47;27.50;99.90
42365;DHT22;28498;54.400;18.566;2023-07-16T12:55:14;27.40;99.90
42365;DHT22;28498;54.400;18.566;2023-07-16T12:57:41;27.90;99.90
42365;DHT22;28498;54.400;18.566;2023-07-16T13:00:08;28.80;99.90
42365;DHT22;28498;54.400;18.566;2023-07-16T13:02:38;28.70;98.80
42365;DHT22;28498;54.400;18.566;2023-07-16T13:05:05;29.10;97.60
42365;DHT22;28498;54.400;18.566;2023-07-16T13:07:32;28.80;95.70
42365;DHT22;28498;54.400;18.566;2023-07-16T13:10:00;28.60;95.90
42365;DHT22;28498;54.400;18.566;2023-07-16T13:12:43;28.70;98.00
42365;DHT22;28498;54.400;18.566;2023-07-16T13:15:10;28.40;97.70
42365;DHT22;28498;54.400;18.566;2023-07-16T13:17:37;28.40;99.90
42365;DHT22;28498;54.400;18.566;2023-07-16T13:20:05;28.60;98.30
42365;DHT22;28498;54.400;18.566;2023-07-16T13:22:33;28.60;97.70
42365;DHT22;28498;54.400;18.566;2023-07-16T13:25:01;29.10;98.40
42365;DHT22;28498;54.400;18.566;2023-07-16T13:27:27;29.20;95.60
42365;DHT22;28498;54.400;18.566;2023-07-16T13:29:55;29.20;96.70
42365;DHT22;28498;54.400;18.566;2023-07-16T13:32:22;29.70;93.80
42365;DHT22;28498;54.400;18.566;2023-07-16T13:34:49;29.70;92.30
42365;DHT22;28498;54.400;18.566;2023-07-16T13:37:16;29.70;92.00
42365;DHT22;28498;54.400;18.566;2023-07-16T13:39:43;28.50;95.40
42365;DHT22;28498;54.400;18.566;2023-07-16T13:42:10;27.10;99.90
42365;DHT22;28498;54.400;18.566;2023-07-16T13:44:49;26.50;99.90
42365;DHT22;28498;54.400;18.566;2023-07-16T13:47:16;26.20;99.90
42365;DHT22;28498;54.400;18.566;2023-07-16T13:49:43;25.70;99.90
42365;DHT22;28498;54.400;18.566;2023-07-16T13:52:10;25.40;99.90
42365;DHT22;28498;54.400;18.566;2023-07-16T13:54:37;25.60;99.90
42365;DHT22;28498;54.400;18.566;2023-07-16T13:57:08;25.50;93.50
42365;DHT22;28498;54.400;18.566;2023-07-16T13:59:35;25.30;99.90
42365;DHT22;28498;54.400;18.566;2023-07-16T14:02:03;25.50;99.90
42365;DHT22;28498;54.400;18.566;2023-07-16T14:04:31;25.20;22.90
42365;DHT22;28498;54.400;18.566;2023-07-16T14:06:59;25.20;99.90
42365;DHT22;28498;54.400;18.566;2023-07-16T14:09:26;25.20;1.00
42365;DHT22;28498;54.400;18.566;2023-07-16T14:11:53;24.90;99.90
42365;DHT22;28498;54.400;18.566;2023-07-16T14:14:21;24.40;3.70
42365;DHT22;28498;54.400;18.566;2023-07-16T14:16:49;24.20;51.10
42365;DHT22;28498;54.400;18.566;2023-07-16T14:19:16;24.00;1.00
42365;DHT22;28498;54.400;18.566;2023-07-16T14:21:43;23.50;99.90
42365;DHT22;28498;54.400;18.566;2023-07-16T14:24:10;23.40;99.90
42365;DHT22;28498;54.400;18.566;2023-07-16T14:26:37;23.30;99.90
42365;DHT22;28498;54.400;18.566;2023-07-16T14:29:05;23.30;99.90
42365;DHT22;28498;54.400;18.566;2023-07-16T14:31:32;23.20;99.90
42365;DHT22;28498;54.400;18.566;2023-07-16T14:33:59;23.30;99.90
42365;DHT22;28498;54.400;18.566;2023-07-16T14:36:26;23.30;99.90
42365;DHT22;28498;54.400;18.566;2023-07-16T14:38:54;23.30;99.90
42365;DHT22;28498;54.400;18.566;2023-07-16T14:41:21;23.30;99.90
42365;DHT22;28498;54.400;18.566;2023-07-16T14:43:48;23.30;99.90
42365;DHT22;28498;54.400;18.566;2023-07-16T14:46:16;23.30;99.90
42365;DHT22;28498;54.400;18.566;2023-07-16T14:48:45;23.20;99.90
42365;DHT22;28498;54.400;18.566;2023-07-16T14:51:12;23.10;99.90
42365;DHT22;28498;54.400;18.566;2023-07-16T14:53:40;23.00;1.00
42365;DHT22;28498;54.400;18.566;2023-07-16T14:56:07;23.10;99.90
42365;DHT22;28498;54.400;18.566;2023-07-16T14:58:34;23.20;1.00
42365;DHT22;28498;54.400;18.566;2023-07-16T15:01:04;23.50;99.90
42365;DHT22;28498;54.400;18.566;2023-07-16T15:03:35;23.70;99.90
42365;DHT22;28498;54.400;18.566;2023-07-16T15:06:07;23.50;99.90
42365;DHT22;28498;54.400;18.566;2023-07-16T15:08:34;23.40;99.90
42365;DHT22;28498;54.400;18.566;2023-07-16T15:11:01;23.20;99.90
42365;DHT22;28498;54.400;18.566;2023-07-16T15:13:29;22.80;99.90
42365;DHT22;28498;54.400;18.566;2023-07-16T15:15:57;22.70;99.90
42365;DHT22;28498;54.400;18.566;2023-07-16T15:18:25;22.30;1.00
42365;DHT22;28498;54.400;18.566;2023-07-16T15:21:00;22.20;1.00
42365;DHT22;28498;54.400;18.566;2023-07-16T15:23:28;22.30;1.00
42365;DHT22;28498;54.400;18.566;2023-07-16T15:26:00;22.30;1.00
42365;DHT22;28498;54.400;18.566;2023-07-16T15:28:31;22.60;1.00
42365;DHT22;28498;54.400;18.566;2023-07-16T15:31:01;22.60;1.00
42365;DHT22;28498;54.400;18.566;2023-07-16T15:33:28;22.60;99.90
42365;DHT22;28498;54.400;18.566;2023-07-16T15:35:58;22.50;99.90
42365;DHT22;28498;54.400;18.566;2023-07-16T15:38:25;22.30;99.90
42365;DHT22;28498;54.400;18.566;2023-07-16T15:40:52;22.30;99.90
42365;DHT22;28498;54.400;18.566;2023-07-16T15:43:20;22.30;99.90
42365;DHT22;28498;54.400;18.566;2023-07-16T15:45:47;22.10;99.90
42365;DHT22;28498;54.400;18.566;2023-07-16T15:48:14;22.20;99.90